Time;durP1;ratioP1;P1;durP2;ratioP2;P2;SDS_P1;SDS_P2;PMS_P1;PMS_P2;Temp;Humidity;BMP_temperature;BMP_pressure;BME280_temperature;BME280_humidity;BME280_pressure;Samples;Min_cycle;Max_cycle;Signal;HPM_P1;HPM_P2
2021/08/21 00:02:05;;;;;;;5.7;4.3;;;;;;;;;;;;;
2021/08/21 00:04:30;;;;;;;5.9;4.5;;;;;;;;;;;;;
2021/08/21 00:06:55;;;;;;;6.3;4.4;;;;;;;;;;;;;
2021/08/21 00:09:20;;;;;;;5.1;4.5;;;;;;;;;;;;;
2021/08/21 00:11:45;;;;;;;5.2;4.2;;;;;;;;;;;;;
2021/08/21 00:14:11;;;;;;;5.6;4.4;;;;;;;;;;;;;
2021/08/21 00:16:39;;;;;;;6;4.7;;;;;;;;;;;;;
2021/08/21 00:19:04;;;;;;;5.2;4.2;;;;;;;;;;;;;
2021/08/21 00:21:29;;;;;;;4.8;4.2;;;;;;;;;;;;;
2021/08/21 00:23:54;;;;;;;7.2;4.5;;;;;;;;;;;;;
2021/08/21 00:26:19;;;;;;;6;4.5;;;;;;;;;;;;;
2021/08/21 00:28:45;;;;;;;5;4.1;;;;;;;;;;;;;
2021/08/21 00:31:11;;;;;;;4.9;4.4;;;;;;;;;;;;;
2021/08/21 00:33:36;;;;;;;5.8;4.5;;;;;;;;;;;;;
2021/08/21 00:36:01;;;;;;;5.2;4.1;;;;;;;;;;;;;
2021/08/21 00:38:27;;;;;;;5.4;4.5;;;;;;;;;;;;;
2021/08/21 00:40:52;;;;;;;5.6;4.3;;;;;;;;;;;;;
2021/08/21 00:43:17;;;;;;;5.6;4.2;;;;;;;;;;;;;
2021/08/21 00:45:42;;;;;;;5.4;4.1;;;;;;;;;;;;;
2021/08/21 00:48:07;;;;;;;4.8;3.9;;;;;;;;;;;;;
2021/08/21 00:50:32;;;;;;;5.3;4.2;;;;;;;;;;;;;
2021/08/21 00:52:58;;;;;;;4.8;4;;;;;;;;;;;;;
2021/08/21 00:55:23;;;;;;;4.9;4.2;;;;;;;;;;;;;
2021/08/21 00:57:48;;;;;;;5.3;4.2;;;;;;;;;;;;;
2021/08/21 01:03:10;;;;;;;7;4.4;;;;;;;;;;;;;
2021/08/21 01:05:35;;;;;;;5.2;4.1;;;;;;;;;;;;;
2021/08/21 01:08:00;;;;;;;5.8;4.1;;;;;;;;;;;;;
2021/08/21 01:10:25;;;;;;;4.7;4.1;;;;;;;;;;;;;
2021/08/21 01:12:50;;;;;;;5;3.9;;;;;;;;;;;;;
2021/08/21 01:15:15;;;;;;;5.4;4.2;;;;;;;;;;;;;
2021/08/21 01:17:40;;;;;;;5.4;4.6;;;;;;;;;;;;;
2021/08/21 01:20:06;;;;;;;5.5;4;;;;;;;;;;;;;
2021/08/21 01:22:31;;;;;;;5.5;4.3;;;;;;;;;;;;;
2021/08/21 01:24:56;;;;;;;4.9;4.2;;;;;;;;;;;;;
2021/08/21 01:27:21;;;;;;;5.7;4.3;;;;;;;;;;;;;
2021/08/21 01:29:46;;;;;;;5.5;4.3;;;;;;;;;;;;;
2021/08/21 01:32:11;;;;;;;5.4;4.6;;;;;;;;;;;;;
2021/08/21 01:34:36;;;;;;;6.1;4.3;;;;;;;;;;;;;
2021/08/21 01:37:01;;;;;;;6.5;4.6;;;;;;;;;;;;;
2021/08/21 01:39:27;;;;;;;5.5;4.5;;;;;;;;;;;;;
2021/08/21 01:41:52;;;;;;;6.5;4.6;;;;;;;;;;;;;
2021/08/21 01:44:17;;;;;;;4.6;4.1;;;;;;;;;;;;;
2021/08/21 01:46:46;;;;;;;5.5;4.5;;;;;;;;;;;;;
2021/08/21 01:49:11;;;;;;;5.2;4.5;;;;;;;;;;;;;
2021/08/21 01:51:32;;;;;;;5.8;4.6;;;;;;;;;;;;;
2021/08/21 01:53:58;;;;;;;5.7;4.3;;;;;;;;;;;;;
2021/08/21 01:56:23;;;;;;;7.5;4.7;;;;;;;;;;;;;
2021/08/21 01:58:48;;;;;;;4.9;4.4;;;;;;;;;;;;;
2021/08/21 02:01:13;;;;;;;5.1;4.3;;;;;;;;;;;;;
2021/08/21 02:03:39;;;;;;;5.9;4.2;;;;;;;;;;;;;
2021/08/21 02:06:04;;;;;;;5.3;4.3;;;;;;;;;;;;;
2021/08/21 02:08:29;;;;;;;6.8;4.5;;;;;;;;;;;;;
2021/08/21 02:10:54;;;;;;;5.3;4.2;;;;;;;;;;;;;
2021/08/21 02:13:19;;;;;;;5.2;4.2;;;;;;;;;;;;;
2021/08/21 02:15:44;;;;;;;6.7;4.7;;;;;;;;;;;;;
2021/08/21 02:18:09;;;;;;;5.9;4.1;;;;;;;;;;;;;
2021/08/21 02:20:35;;;;;;;5.9;4.5;;;;;;;;;;;;;
2021/08/21 02:23:00;;;;;;;5.7;4.2;;;;;;;;;;;;;
2021/08/21 02:25:25;;;;;;;5.4;4;;;;;;;;;;;;;
2021/08/21 02:27:59;;;;;;;6.4;4.9;;;;;;;;;;;;;
2021/08/21 02:30:15;;;;;;;5.2;4.4;;;;;;;;;;;;;
2021/08/21 02:32:40;;;;;;;6;4.5;;;;;;;;;;;;;
2021/08/21 02:35:05;;;;;;;6.8;4.5;;;;;;;;;;;;;
2021/08/21 02:37:30;;;;;;;5.4;4.7;;;;;;;;;;;;;
2021/08/21 02:39:56;;;;;;;5.4;4.4;;;;;;;;;;;;;
2021/08/21 02:42:21;;;;;;;5.3;4.5;;;;;;;;;;;;;
2021/08/21 02:44:46;;;;;;;8;4.8;;;;;;;;;;;;;
2021/08/21 02:47:11;;;;;;;6.5;4.9;;;;;;;;;;;;;
2021/08/21 02:49:36;;;;;;;5.9;4.7;;;;;;;;;;;;;
2021/08/21 02:52:01;;;;;;;4.9;4.2;;;;;;;;;;;;;
2021/08/21 02:54:26;;;;;;;5.3;4.3;;;;;;;;;;;;;
2021/08/21 02:56:52;;;;;;;5.8;4.2;;;;;;;;;;;;;
2021/08/21 02:59:17;;;;;;;4.8;4.3;;;;;;;;;;;;;
2021/08/21 03:01:43;;;;;;;6.7;4.4;;;;;;;;;;;;;
2021/08/21 03:04:08;;;;;;;6.1;4.4;;;;;;;;;;;;;
2021/08/21 03:06:33;;;;;;;5.8;4.6;;;;;;;;;;;;;
2021/08/21 03:08:58;;;;;;;6.2;4.3;;;;;;;;;;;;;
2021/08/21 03:11:23;;;;;;;6.2;4.8;;;;;;;;;;;;;
2021/08/21 03:13:48;;;;;;;5.7;4.4;;;;;;;;;;;;;
2021/08/21 03:16:13;;;;;;;6;4.6;;;;;;;;;;;;;
2021/08/21 03:18:39;;;;;;;5;4;;;;;;;;;;;;;
2021/08/21 03:21:04;;;;;;;4.8;4;;;;;;;;;;;;;
2021/08/21 03:23:29;;;;;;;5.1;4.1;;;;;;;;;;;;;
2021/08/21 03:25:54;;;;;;;6.2;4.4;;;;;;;;;;;;;
2021/08/21 03:28:19;;;;;;;5;3.9;;;;;;;;;;;;;
2021/08/21 03:30:45;;;;;;;4.8;4.3;;;;;;;;;;;;;
2021/08/21 03:33:10;;;;;;;5.6;4.1;;;;;;;;;;;;;
2021/08/21 03:35:35;;;;;;;4.9;4.4;;;;;;;;;;;;;
2021/08/21 03:38:01;;;;;;;5;4.2;;;;;;;;;;;;;
2021/08/21 03:40:25;;;;;;;5.2;4;;;;;;;;;;;;;
2021/08/21 03:42:50;;;;;;;5.3;4.4;;;;;;;;;;;;;
2021/08/21 03:45:15;;;;;;;7.7;4.4;;;;;;;;;;;;;
2021/08/21 03:47:42;;;;;;;6.4;4.2;;;;;;;;;;;;;
2021/08/21 03:50:07;;;;;;;7.5;4.9;;;;;;;;;;;;;
2021/08/21 03:52:32;;;;;;;9;6.5;;;;;;;;;;;;;
2021/08/21 03:54:58;;;;;;;7.7;5.5;;;;;;;;;;;;;
2021/08/21 03:57:22;;;;;;;6;4.9;;;;;;;;;;;;;
2021/08/21 03:59:47;;;;;;;5.9;4.4;;;;;;;;;;;;;
2021/08/21 04:02:32;;;;;;;5.6;4.7;;;;;;;13.8;95.52637;940.4874;;;;
2021/08/21 04:04:57;;;;;;;5.5;4.4;;;;;;;13.65;95.84863;940.5231;;;;
2021/08/21 04:07:23;;;;;;;6.2;5;;;;;;;13.53;96.40039;940.5195;;;;
2021/08/21 04:09:48;;;;;;;6.3;4.7;;;;;;;13.58;95.9043;940.5148;;;;
2021/08/21 04:12:18;;;;;;;6.8;4.8;;;;;;;13.56;96.23535;940.5044;;;;
2021/08/21 04:14:40;;;;;;;6.2;4.5;;;;;;;13.48;96.64063;940.5435;;;;
2021/08/21 04:17:06;;;;;;;5.6;4.4;;;;;;;13.7;95.42383;940.4272;;;;
2021/08/21 04:19:31;;;;;;;6.2;4.8;;;;;;;13.52;96.52441;940.5107;;;;
2021/08/21 04:21:58;;;;;;;7.5;5;;;;;;;13.36;97.60352;940.5725;;;;
2021/08/21 04:24:23;;;;;;;5.4;4.8;;;;;;;13.56;96.60156;940.5964;;;;
2021/08/21 04:26:48;;;;;;;6.4;4.8;;;;;;;13.68;95.3877;940.5817;;;;
2021/08/21 04:29:14;;;;;;;6.1;4.5;;;;;;;13.77;94.51953;940.5425;;;;
2021/08/21 04:31:38;;;;;;;5.7;4.5;;;;;;;13.89;93.22363;940.5421;;;;
2021/08/21 04:34:03;;;;;;;7.6;4.6;;;;;;;13.78;93.60352;940.6242;;;;
2021/08/21 04:36:28;;;;;;;6;4.4;;;;;;;13.73;94.29297;940.5392;;;;
2021/08/21 04:38:55;;;;;;;6.3;4.3;;;;;;;13.67;94.25684;940.6641;;;;
2021/08/21 04:41:20;;;;;;;6.4;4.6;;;;;;;13.67;94.25684;940.6488;;;;
2021/08/21 04:43:46;;;;;;;5.8;4.4;;;;;;;13.84;93.3291;940.7045;;;;
2021/08/21 04:46:11;;;;;;;6.6;4.3;;;;;;;13.91;92.69824;940.7126;;;;
2021/08/21 04:48:37;;;;;;;5;4.3;;;;;;;13.89;92.60254;940.7639;;;;
2021/08/21 04:51:02;;;;;;;4.9;4.1;;;;;;;13.79;93.5127;940.8091;;;;
2021/08/21 04:53:28;;;;;;;5.5;4.1;;;;;;;13.75;94.33203;940.8035;;;;
2021/08/21 04:55:53;;;;;;;4.9;4.1;;;;;;;13.74;94.93945;940.7722;;;;
2021/08/21 04:58:18;;;;;;;5.3;4.2;;;;;;;13.82;94.38184;940.8438;;;;
2021/08/21 05:00:43;;;;;;;5.4;4.3;;;;;;;13.82;93.80664;940.7878;;;;
2021/08/21 05:03:08;;;;;;;5.9;4.4;;;;;;;13.77;94.82031;940.8146;;;;
2021/08/21 05:05:33;;;;;;;5.9;4.6;;;;;;;13.69;95.48145;940.8738;;;;
2021/08/21 05:07:58;;;;;;;5.5;4.1;;;;;;;13.7;95.68848;940.8242;;;;
2021/08/21 05:10:23;;;;;;;6;4.7;;;;;;;13.94;94.62598;940.8983;;;;
2021/08/21 05:12:49;;;;;;;7.7;4.5;;;;;;;14.17;93.33008;940.8786;;;;
2021/08/21 05:15:14;;;;;;;5;4.1;;;;;;;13.97;94.7832;940.8895;;;;
2021/08/21 05:17:39;;;;;;;6.2;4.5;;;;;;;13.84;95.63965;940.9327;;;;
2021/08/21 05:20:07;;;;;;;7.3;4.9;;;;;;;14.12;94.79395;940.9492;;;;
2021/08/21 05:22:40;;;;;;;5.4;4.6;;;;;;;14.41;93.875;940.9894;;;;
2021/08/21 05:24:54;;;;;;;5.6;4.5;;;;;;;14.65;93.16699;940.9426;;;;
2021/08/21 05:27:21;;;;;;;7.3;4.3;;;;;;;14.79;91.84668;941.0024;;;;
2021/08/21 05:29:46;;;;;;;5;4.3;;;;;;;14.99;91.33691;940.9917;;;;
2021/08/21 05:32:11;;;;;;;5.8;4.3;;;;;;;14.99;90.06836;940.9917;;;;
2021/08/21 05:34:36;;;;;;;5.3;4.2;;;;;;;14.88;90.80469;940.9713;;;;
2021/08/21 05:37:01;;;;;;;7.2;5.6;;;;;;;15.02;91.53711;940.9567;;;;
2021/08/21 05:39:27;;;;;;;5.2;4;;;;;;;15.92;87.74902;940.9881;;;;
2021/08/21 05:41:52;;;;;;;3.5;3.2;;;;;;;17.24;81.70801;940.954;;;;
2021/08/21 05:44:17;;;;;;;4.7;3.5;;;;;;;18.17;75.95313;940.8904;;;;
2021/08/21 05:46:43;;;;;;;5;4;;;;;;;18.34;74.08984;940.8943;;;;
2021/08/21 05:49:08;;;;;;;4.2;3.8;;;;;;;18.92;71.58984;940.9009;;;;
2021/08/21 05:51:33;;;;;;;5.4;3.7;;;;;;;19.53;69.7666;940.9375;;;;
2021/08/21 05:53:58;;;;;;;4.4;3.4;;;;;;;19.62;69.08301;940.9919;;;;
2021/08/21 05:56:24;;;;;;;4.3;3.1;;;;;;;19.33;71.41309;940.9356;;;;
2021/08/21 05:58:49;;;;;;;4.4;3.7;;;;;;;21.06;65.55176;940.9219;;;;
2021/08/21 06:01:16;;;;;;;3.9;3;;;;;;;21.15;63.92871;940.9422;;;;
2021/08/21 06:03:41;;;;;;;5.2;3.2;;;;;;;20.84;65.23926;940.9736;;;;
2021/08/21 06:06:07;;;;;;;4.3;3.5;;;;;;;20.66;65.90234;940.9755;;;;
2021/08/21 06:08:32;;;;;;;4.1;3.2;;;;;;;21.6;63.11621;941.0042;;;;
2021/08/21 06:10:58;;;;;;;5.8;3.1;;;;;;;21.56;63.05078;940.9792;;;;
2021/08/21 06:13:23;;;;;;;4.6;2.9;;;;;;;22.53;60.41895;941.0053;;;;
2021/08/21 06:15:48;;;;;;;3.7;2.9;;;;;;;23.1;58.35938;941.0278;;;;
2021/08/21 06:18:13;;;;;;;4;3.3;;;;;;;21.6;62.24805;941.0181;;;;
2021/08/21 06:20:39;;;;;;;3.4;2.9;;;;;;;21.64;62.36035;941.0415;;;;
2021/08/21 06:23:04;;;;;;;4.6;3.1;;;;;;;22.78;58.72754;941.0151;;;;
2021/08/21 06:25:29;;;;;;;4.5;2.8;;;;;;;23.83;55.42969;941.0267;;;;
2021/08/21 06:27:55;;;;;;;3.7;3;;;;;;;25.6;50.60449;940.9924;;;;
2021/08/21 06:30:20;;;;;;;6.2;2.8;;;;;;;24.98;53.31934;940.9924;;;;
2021/08/21 06:32:45;;;;;;;3.9;3.3;;;;;;;26.65;47.41992;941.0134;;;;
2021/08/21 06:35:10;;;;;;;3.8;3.1;;;;;;;27.42;46.31445;941.0069;;;;
2021/08/21 06:37:35;;;;;;;4.1;3;;;;;;;27.61;44.50586;940.9656;;;;
2021/08/21 06:40:00;;;;;;;3.3;2.9;;;;;;;28.21;42.73633;941.0583;;;;
2021/08/21 06:42:25;;;;;;;3.3;3;;;;;;;29.3;41.99316;940.9988;;;;
2021/08/21 06:44:51;;;;;;;4.7;2.9;;;;;;;30.11;40.38574;940.9931;;;;
2021/08/21 06:47:17;;;;;;;3;2.6;;;;;;;30.66;38.17676;940.9434;;;;
2021/08/21 06:49:42;;;;;;;3.1;2.8;;;;;;;29.59;39.71973;940.9525;;;;
2021/08/21 06:52:07;;;;;;;3.3;3;;;;;;;26.62;45.86426;940.9674;;;;
2021/08/21 06:54:32;;;;;;;3.5;3.2;;;;;;;29.6;40.29199;940.9559;;;;
2021/08/21 06:56:57;;;;;;;3.3;2.9;;;;;;;30.64;39.46582;940.9194;;;;
2021/08/21 06:59:23;;;;;;;3.4;2.7;;;;;;;31.24;38.05762;940.9379;;;;
2021/08/21 07:01:48;;;;;;;4.3;2.7;;;;;;;30.76;38.93848;940.9019;;;;
2021/08/21 07:04:14;;;;;;;3.2;2.9;;;;;;;31.93;36.71387;940.9247;;;;
2021/08/21 07:06:39;;;;;;;2.7;2.5;;;;;;;32.33;36.18262;940.9005;;;;
2021/08/21 07:09:05;;;;;;;3.6;2.9;;;;;;;31.35;37.40918;940.8969;;;;
2021/08/21 07:11:30;;;;;;;3.1;2.8;;;;;;;32.4;36.17676;940.9135;;;;
2021/08/21 07:13:55;;;;;;;4.2;3;;;;;;;31.47;36.61719;940.8164;;;;
2021/08/21 07:16:20;;;;;;;3.1;2.5;;;;;;;31.09;37.50781;940.7717;;;;
2021/08/21 07:18:45;;;;;;;3.7;2.8;;;;;;;30.42;38.07227;940.8052;;;;
2021/08/21 07:21:11;;;;;;;3.2;2.9;;;;;;;30.03;39.88965;940.8002;;;;
2021/08/21 07:23:36;;;;;;;3.2;2.9;;;;;;;29.44;40.19531;940.7753;;;;
2021/08/21 07:26:02;;;;;;;3;2.6;;;;;;;28.67;41.67285;940.7525;;;;
2021/08/21 07:28:28;;;;;;;3.3;2.6;;;;;;;28.55;42.07715;940.8135;;;;
2021/08/21 07:30:53;;;;;;;3.1;2.8;;;;;;;28.79;42.31445;940.8383;;;;
2021/08/21 07:33:18;;;;;;;3.4;3.1;;;;;;;28.34;42.22461;940.7994;;;;
2021/08/21 07:35:43;;;;;;;3.5;3;;;;;;;29.65;41.03711;940.7492;;;;
2021/08/21 07:38:08;;;;;;;3.4;3;;;;;;;30.37;39.47754;940.8345;;;;
2021/08/21 07:40:34;;;;;;;3.1;2.8;;;;;;;29.35;41.02148;940.8176;;;;
2021/08/21 07:42:59;;;;;;;3.1;2.8;;;;;;;28.36;43.04688;940.7527;;;;
2021/08/21 07:45:24;;;;;;;3.2;2.9;;;;;;;28.45;43.28223;940.722;;;;
2021/08/21 07:47:51;;;;;;;3.1;2.8;;;;;;;26.85;45.17773;940.6917;;;;
2021/08/21 07:50:15;;;;;;;3.4;3.1;;;;;;;27.14;43.80762;940.7153;;;;
2021/08/21 07:52:40;;;;;;;3.2;2.9;;;;;;;28.36;43.87988;940.6803;;;;
2021/08/21 07:55:05;;;;;;;3.5;3;;;;;;;28.91;42.24316;940.7188;;;;
2021/08/21 07:57:31;;;;;;;3.8;3.2;;;;;;;29.56;42.39844;940.7054;;;;
2021/08/21 07:59:56;;;;;;;3.2;2.9;;;;;;;29.6;40.01855;940.707;;;;
2021/08/21 08:02:21;;;;;;;3.3;2.7;;;;;;;29.08;41.4248;940.7161;;;;
2021/08/21 08:04:46;;;;;;;3.3;3;;;;;;;30.59;39.81934;940.7122;;;;
2021/08/21 08:07:12;;;;;;;3.1;2.8;;;;;;;30.86;37.47656;940.7737;;;;
2021/08/21 08:09:37;;;;;;;4.7;2.8;;;;;;;30.38;39.38281;940.7263;;;;
2021/08/21 08:12:03;;;;;;;3.3;2.9;;;;;;;31.81;37.05176;940.7665;;;;
2021/08/21 08:14:29;;;;;;;3.5;3;;;;;;;31.61;35.6709;940.7397;;;;
2021/08/21 08:16:55;;;;;;;3;2.8;;;;;;;32.77;35.6543;940.7836;;;;
2021/08/21 08:19:20;;;;;;;3.9;2.7;;;;;;;32.49;35.11621;940.7932;;;;
2021/08/21 08:21:46;;;;;;;3.2;2.7;;;;;;;31.75;36.83203;940.7349;;;;
2021/08/21 08:24:13;;;;;;;4.7;3;;;;;;;31.46;37.13086;940.762;;;;
2021/08/21 08:26:36;;;;;;;3.1;2.8;;;;;;;32.22;35.8623;940.7585;;;;
2021/08/21 08:29:01;;;;;;;3.4;3.1;;;;;;;33.25;35.00684;940.8027;;;;
2021/08/21 08:31:27;;;;;;;3.1;2.8;;;;;;;34.21;33.55078;940.7493;;;;
2021/08/21 08:33:52;;;;;;;3;2.7;;;;;;;32.82;34.13281;940.8508;;;;
2021/08/21 08:36:17;;;;;;;3.2;2.9;;;;;;;31.7;36.81543;940.8066;;;;
2021/08/21 08:38:42;;;;;;;3.5;2.6;;;;;;;33.29;35.44238;940.8069;;;;
2021/08/21 08:41:07;;;;;;;3.3;3;;;;;;;33.25;33.04785;940.8974;;;;
2021/08/21 08:43:32;;;;;;;3.2;2.8;;;;;;;29.22;39.62695;940.8603;;;;
2021/08/21 08:45:57;;;;;;;3.1;2.8;;;;;;;32.19;36.14746;940.8078;;;;
2021/08/21 08:48:22;;;;;;;2.8;2.6;;;;;;;32.91;34.2959;940.8002;;;;
2021/08/21 08:50:48;;;;;;;3.1;2.8;;;;;;;33.62;34.48145;940.7922;;;;
2021/08/21 08:53:13;;;;;;;3;2.7;;;;;;;34.09;34.22852;940.7642;;;;
2021/08/21 08:55:40;;;;;;;3.4;2.8;;;;;;;33.42;33.73242;940.8206;;;;
2021/08/21 08:58:04;;;;;;;4;2.9;;;;;;;32.65;35.15234;940.8203;;;;
2021/08/21 09:00:30;;;;;;;3.2;2.9;;;;;;;31.78;35.2168;940.7848;;;;
2021/08/21 09:02:55;;;;;;;3.3;3;;;;;;;32.04;36.18359;940.7507;;;;
2021/08/21 09:05:21;;;;;;;3.1;2.5;;;;;;;33.51;33.19824;940.7495;;;;
2021/08/21 09:07:48;;;;;;;3.5;3.2;;;;;;;34.22;32.86523;940.7485;;;;
2021/08/21 09:10:12;;;;;;;3.3;2.9;;;;;;;34.54;32.16504;940.774;;;;
2021/08/21 09:12:37;;;;;;;3.1;2.7;;;;;;;34.35;32.39258;940.7353;;;;
2021/08/21 09:15:02;;;;;;;3.8;3;;;;;;;34.82;31.29199;940.7029;;;;
2021/08/21 09:17:28;;;;;;;3.2;2.8;;;;;;;35.11;30.27441;940.7534;;;;
2021/08/21 09:19:53;;;;;;;3.4;2.4;;;;;;;35.55;30.45996;940.7425;;;;
2021/08/21 09:22:18;;;;;;;3.7;3;;;;;;;34.31;32.79883;940.736;;;;
2021/08/21 09:24:43;;;;;;;3.8;2.8;;;;;;;34.01;31.14063;940.6781;;;;
2021/08/21 09:27:08;;;;;;;3.1;2.8;;;;;;;33.86;30.91309;940.6956;;;;
2021/08/21 09:29:34;;;;;;;3.2;2.9;;;;;;;32.62;32.5459;940.7506;;;;
2021/08/21 09:31:58;;;;;;;3.3;3;;;;;;;33.21;32.28809;940.7357;;;;
2021/08/21 09:34:24;;;;;;;3.1;2.8;;;;;;;33.13;34.37207;940.7181;;;;
2021/08/21 09:36:49;;;;;;;3.1;2.8;;;;;;;32.18;35.13965;940.6669;;;;
2021/08/21 09:39:15;;;;;;;3.1;2.8;;;;;;;32.17;36.06152;940.6735;;;;
2021/08/21 09:41:40;;;;;;;3.2;2.9;;;;;;;31.52;35.7832;940.5669;;;;
2021/08/21 09:44:05;;;;;;;4.2;3.1;;;;;;;31.07;37.1582;940.5112;;;;
2021/08/21 09:46:30;;;;;;;3.2;2.7;;;;;;;31.11;39.0752;940.5528;;;;
2021/08/21 09:48:55;;;;;;;4.8;2.9;;;;;;;31.02;35.91016;940.5008;;;;
2021/08/21 09:51:21;;;;;;;3.4;2.6;;;;;;;30.97;41.03613;940.5206;;;;
2021/08/21 09:53:47;;;;;;;3.8;2.8;;;;;;;31.66;37.38672;940.5419;;;;
2021/08/21 09:56:34;;;;;;;3.6;2.9;;;;;;;31.74;36.32715;940.4881;;;;
2021/08/21 09:58:59;;;;;;;3.2;2.9;;;;;;;31.09;36.64551;940.4687;;;;
2021/08/21 10:01:24;;;;;;;4.2;3.3;;;;;;;30.85;37.58301;940.3599;;;;
2021/08/21 10:03:49;;;;;;;3.1;2.8;;;;;;;30.54;41.79785;940.3031;;;;
2021/08/21 10:06:14;;;;;;;3.5;2.8;;;;;;;30.35;41.55371;940.3973;;;;
2021/08/21 10:08:40;;;;;;;3.4;2.8;;;;;;;30.79;38.96484;940.3716;;;;
2021/08/21 10:11:05;;;;;;;3.2;2.9;;;;;;;31.18;39.63281;940.3709;;;;
2021/08/21 10:13:30;;;;;;;3.9;3.3;;;;;;;30.35;39.88184;940.3739;;;;
2021/08/21 10:15:55;;;;;;;2.7;2.5;;;;;;;29.96;42.44922;940.4094;;;;
2021/08/21 10:18:20;;;;;;;3.7;3;;;;;;;29.9;43.45605;940.3791;;;;
2021/08/21 10:20:46;;;;;;;3.2;2.9;;;;;;;29.92;41.70508;940.3191;;;;
2021/08/21 10:23:11;;;;;;;3.2;2.9;;;;;;;30.05;43.39941;940.2427;;;;
2021/08/21 10:25:36;;;;;;;3.8;3.2;;;;;;;30.69;41.30957;940.223;;;;
2021/08/21 10:28:01;;;;;;;3.2;2.9;;;;;;;31.58;37.7998;940.2395;;;;
2021/08/21 10:30:27;;;;;;;3.4;2.9;;;;;;;30.78;42.29785;940.2141;;;;
2021/08/21 10:32:51;;;;;;;3.2;2.8;;;;;;;31.29;38.26563;940.2481;;;;
2021/08/21 10:35:17;;;;;;;3.8;2.8;;;;;;;31.75;39.43066;940.2456;;;;
2021/08/21 10:37:42;;;;;;;3.5;2.9;;;;;;;31.49;39.9707;940.209;;;;
2021/08/21 10:40:07;;;;;;;3.2;2.9;;;;;;;31.91;38.08984;940.2012;;;;
2021/08/21 10:42:34;;;;;;;4;3;;;;;;;31.33;40.87793;940.1739;;;;
2021/08/21 10:44:58;;;;;;;3.5;3.1;;;;;;;31.63;39.87598;940.1504;;;;
2021/08/21 10:47:23;;;;;;;3.5;2.7;;;;;;;32.19;38.00586;940.2167;;;;
2021/08/21 10:49:48;;;;;;;4.1;3;;;;;;;31.72;40.08691;940.2049;;;;
2021/08/21 10:52:13;;;;;;;3.3;3;;;;;;;32.58;37.28223;940.2291;;;;
2021/08/21 10:54:38;;;;;;;3.6;3;;;;;;;33.35;35.97461;940.2277;;;;
2021/08/21 10:57:03;;;;;;;3.2;2.9;;;;;;;33.96;34.86816;940.211;;;;
2021/08/21 10:59:29;;;;;;;3.1;2.8;;;;;;;34.17;34.06543;940.1839;;;;
2021/08/21 11:01:54;;;;;;;3;2.7;;;;;;;34.21;33.91113;940.1865;;;;
2021/08/21 11:04:19;;;;;;;2.9;2.6;;;;;;;34.66;33.16211;940.1069;;;;
2021/08/21 11:06:44;;;;;;;3.4;2.8;;;;;;;34.97;31.6875;940.1219;;;;
2021/08/21 11:09:10;;;;;;;3.2;2.9;;;;;;;35.12;32.56738;940.1088;;;;
2021/08/21 11:11:37;;;;;;;2.9;2.7;;;;;;;34.47;34.07617;940.0579;;;;
2021/08/21 11:14:01;;;;;;;3.7;2.8;;;;;;;34.7;33.59863;940.0311;;;;
2021/08/21 11:16:25;;;;;;;3.3;2.8;;;;;;;35.25;32.45605;940.0377;;;;
2021/08/21 11:18:50;;;;;;;3.2;2.9;;;;;;;35.15;32.66699;939.9756;;;;
2021/08/21 11:21:15;;;;;;;4.6;2.8;;;;;;;35.61;32.07129;940.0136;;;;
2021/08/21 11:23:40;;;;;;;2.9;2.6;;;;;;;35.42;33.12012;939.9633;;;;
2021/08/21 11:26:06;;;;;;;3.1;2.8;;;;;;;35.64;32.06152;939.9391;;;;
2021/08/21 11:28:31;;;;;;;3.3;2.9;;;;;;;35.18;33.59863;939.9708;;;;
2021/08/21 11:30:58;;;;;;;3.1;2.8;;;;;;;35.29;33.54492;939.9714;;;;
2021/08/21 11:33:23;;;;;;;3.4;3;;;;;;;35;33.8623;939.9352;;;;
2021/08/21 11:35:51;;;;;;;3.1;2.8;;;;;;;35.36;32.33105;939.9645;;;;
2021/08/21 11:38:13;;;;;;;3;2.7;;;;;;;34.91;33.83203;939.9213;;;;
2021/08/21 11:40:38;;;;;;;5.2;3.6;;;;;;;33.34;38.67871;939.9014;;;;
2021/08/21 11:43:03;;;;;;;3.2;2.9;;;;;;;34.27;35.86816;939.8705;;;;
2021/08/21 11:45:28;;;;;;;2.9;2.6;;;;;;;34.02;35.88379;939.9053;;;;
2021/08/21 11:47:54;;;;;;;3.6;2.9;;;;;;;33.85;35.72656;939.9402;;;;
2021/08/21 11:50:19;;;;;;;3.9;2.8;;;;;;;33.44;36.82422;939.9084;;;;
2021/08/21 11:52:44;;;;;;;3;2.7;;;;;;;33.42;36.16113;939.8473;;;;
2021/08/21 11:55:09;;;;;;;3.1;2.7;;;;;;;33.24;37.87793;939.896;;;;
2021/08/21 11:57:34;;;;;;;4.5;3.2;;;;;;;31.25;44.30469;939.8801;;;;
2021/08/21 11:59:59;;;;;;;3.2;2.9;;;;;;;31.68;39.80664;939.8356;;;;
2021/08/21 12:02:25;;;;;;;3.7;3.1;;;;;;;31.55;39.94043;939.9403;;;;
2021/08/21 12:04:50;;;;;;;2.9;2.6;;;;;;;31.74;39.1543;939.9794;;;;
2021/08/21 12:07:25;;;;;;;3.4;2.9;;;;;;;32.06;39.00195;939.9619;;;;
2021/08/21 12:09:49;;;;;;;3.7;2.8;;;;;;;31.9;39.86328;939.8753;;;;
2021/08/21 12:12:14;;;;;;;3.1;2.7;;;;;;;31.89;40.38867;939.933;;;;
2021/08/21 12:14:39;;;;;;;3.9;2.6;;;;;;;32.2;40.14063;939.8461;;;;
2021/08/21 12:17:04;;;;;;;3.8;3.1;;;;;;;31.67;39.69922;939.9088;;;;
2021/08/21 12:19:29;;;;;;;4;2.7;;;;;;;31.05;41.11523;939.7964;;;;
2021/08/21 12:21:55;;;;;;;2.9;2.5;;;;;;;31.39;40.41699;939.8378;;;;
2021/08/21 12:24:20;;;;;;;3.8;3;;;;;;;31.49;40.72461;939.7892;;;;
2021/08/21 12:26:45;;;;;;;3.2;2.8;;;;;;;31.79;40.35645;939.8784;;;;
2021/08/21 12:29:10;;;;;;;3;2.6;;;;;;;31.58;38.75684;939.8513;;;;
2021/08/21 12:31:35;;;;;;;3.9;3;;;;;;;31.35;39.32324;939.7935;;;;
2021/08/21 12:34:00;;;;;;;3.1;2.8;;;;;;;31.13;40.99121;939.8231;;;;
2021/08/21 12:36:25;;;;;;;4.2;2.7;;;;;;;30.46;42.93652;939.7857;;;;
2021/08/21 12:38:50;;;;;;;3.7;3;;;;;;;30.59;44.06055;939.8131;;;;
2021/08/21 12:41:17;;;;;;;3.2;2.8;;;;;;;30.24;43.01172;939.7872;;;;
2021/08/21 12:43:41;;;;;;;4;2.8;;;;;;;30.71;41.93262;939.7836;;;;
2021/08/21 12:46:06;;;;;;;3.2;2.9;;;;;;;30.61;41.3623;939.728;;;;
2021/08/21 12:48:31;;;;;;;4.4;3.1;;;;;;;30.67;42.59863;939.7547;;;;
2021/08/21 12:50:56;;;;;;;6;3.2;;;;;;;30.09;45.83789;939.7136;;;;
2021/08/21 12:53:21;;;;;;;3.4;3;;;;;;;29.56;45.72461;939.6401;;;;
2021/08/21 12:55:46;;;;;;;3.6;3.1;;;;;;;29.48;45.17969;939.6501;;;;
2021/08/21 12:58:12;;;;;;;3.6;3.3;;;;;;;29.38;45.3252;939.69;;;;
2021/08/21 13:00:37;;;;;;;3.6;2.9;;;;;;;29.9;45.25781;939.6942;;;;
2021/08/21 13:03:02;;;;;;;4.1;3;;;;;;;30.11;44.6582;939.6384;;;;
2021/08/21 13:05:29;;;;;;;4.3;3;;;;;;;29.82;44.83203;939.6708;;;;
2021/08/21 13:07:52;;;;;;;4.1;3;;;;;;;29.7;45.14258;939.6289;;;;
2021/08/21 13:12:42;;;;;;;3.5;3;;;;;;;29.35;45.97754;939.5829;;;;
2021/08/21 13:15:07;;;;;;;5.2;3.1;;;;;;;29.22;46.87012;939.5911;;;;
2021/08/21 13:17:32;;;;;;;4.5;3.2;;;;;;;29.54;45.23438;939.5502;;;;
2021/08/21 13:19:58;;;;;;;3.7;2.8;;;;;;;29.56;45.59375;939.5903;;;;
2021/08/21 13:22:27;;;;;;;4.7;3.4;;;;;;;30.02;44.1123;939.6118;;;;
2021/08/21 13:24:48;;;;;;;3.7;3.1;;;;;;;30.08;43.47461;939.5432;;;;
2021/08/21 13:27:14;;;;;;;5.2;3;;;;;;;30.1;44.42969;939.5825;;;;
2021/08/21 13:29:39;;;;;;;3.4;3;;;;;;;30.48;43.32129;939.5286;;;;
2021/08/21 13:32:05;;;;;;;3.8;3.1;;;;;;;30.8;43.23242;939.5483;;;;
2021/08/21 13:34:30;;;;;;;4;3.3;;;;;;;30.72;42.77051;939.4755;;;;
2021/08/21 13:36:55;;;;;;;4.6;3.3;;;;;;;30.4;45.45117;939.5353;;;;
2021/08/21 13:39:21;;;;;;;4.3;3.3;;;;;;;30.16;44.67578;939.519;;;;
2021/08/21 13:41:46;;;;;;;3.4;2.9;;;;;;;30.25;42.96484;939.4585;;;;
2021/08/21 13:44:11;;;;;;;3.2;2.9;;;;;;;29.35;47.59863;939.4783;;;;
2021/08/21 13:46:36;;;;;;;4.5;3;;;;;;;29.52;46.30469;939.5134;;;;
2021/08/21 13:49:02;;;;;;;5.1;3.2;;;;;;;29.82;43.56836;939.4882;;;;
2021/08/21 13:51:27;;;;;;;3.5;3.2;;;;;;;29.94;44.61719;939.5027;;;;
2021/08/21 13:53:52;;;;;;;3.6;2.7;;;;;;;30.1;44.82422;939.4648;;;;
2021/08/21 13:56:18;;;;;;;4.1;2.9;;;;;;;30.32;43.16309;939.4796;;;;
2021/08/21 13:58:43;;;;;;;3.5;3;;;;;;;30.39;42.64453;939.3894;;;;
2021/08/21 14:01:09;;;;;;;3.9;3;;;;;;;30.19;44.09277;939.3646;;;;
2021/08/21 14:03:34;;;;;;;4;3;;;;;;;29.69;44.19922;939.4269;;;;
2021/08/21 14:06:00;;;;;;;7.7;3;;;;;;;29.64;44.91016;939.4443;;;;
2021/08/21 14:08:24;;;;;;;3;2.7;;;;;;;29.24;46.51367;939.4001;;;;
2021/08/21 14:10:49;;;;;;;4.5;3.3;;;;;;;29.5;44.95508;939.4208;;;;
2021/08/21 14:13:16;;;;;;;3.7;3.1;;;;;;;29.72;44.91699;939.4565;;;;
2021/08/21 14:15:41;;;;;;;4.3;3.2;;;;;;;29.8;43.92383;939.4094;;;;
2021/08/21 14:18:07;;;;;;;3.6;3.2;;;;;;;29.72;43.96387;939.3068;;;;
2021/08/21 14:20:31;;;;;;;3.4;3.1;;;;;;;29.83;44.17773;939.4091;;;;
2021/08/21 14:22:56;;;;;;;4.8;3.3;;;;;;;29.81;43.68652;939.3605;;;;
2021/08/21 14:25:21;;;;;;;4.6;3.2;;;;;;;29.83;45.53809;939.3384;;;;
2021/08/21 14:27:46;;;;;;;3.6;3;;;;;;;29.94;43.66309;939.3884;;;;
2021/08/21 14:30:11;;;;;;;3.7;2.9;;;;;;;29.94;44.51074;939.4114;;;;
2021/08/21 14:32:37;;;;;;;3.2;2.9;;;;;;;29.76;44.14746;939.3805;;;;
2021/08/21 14:35:02;;;;;;;4.1;3.3;;;;;;;29.46;44.99902;939.3268;;;;
2021/08/21 14:37:28;;;;;;;3.6;3.1;;;;;;;29.02;46.0752;939.3617;;;;
2021/08/21 14:39:53;;;;;;;3.2;2.9;;;;;;;28.95;46.36426;939.409;;;;
2021/08/21 14:42:18;;;;;;;3.8;3.2;;;;;;;28.77;46.54883;939.3741;;;;
2021/08/21 14:44:44;;;;;;;3.7;3.2;;;;;;;28.4;47.83105;939.34;;;;
2021/08/21 14:47:09;;;;;;;4;2.8;;;;;;;28.29;47.50977;939.353;;;;
2021/08/21 14:49:40;;;;;;;5;3.1;;;;;;;28.29;47.62891;939.4127;;;;
2021/08/21 14:52:05;;;;;;;3.9;3.3;;;;;;;28.42;47.01172;939.3074;;;;
2021/08/21 14:54:30;;;;;;;4.6;3.2;;;;;;;28.31;47.14355;939.3912;;;;
2021/08/21 14:56:56;;;;;;;4.9;3.4;;;;;;;28.49;47.94727;939.4647;;;;
2021/08/21 14:59:21;;;;;;;4.3;3;;;;;;;28.53;48.17676;939.4683;;;;
2021/08/21 15:01:46;;;;;;;3.8;3.1;;;;;;;28.36;46.54199;939.4426;;;;
2021/08/21 15:04:11;;;;;;;3.4;3;;;;;;;28.52;46.53418;939.437;;;;
2021/08/21 15:06:36;;;;;;;4.2;3.2;;;;;;;28.48;46.03125;939.4023;;;;
2021/08/21 15:09:02;;;;;;;4.1;2.9;;;;;;;28.31;48.46289;939.4128;;;;
2021/08/21 15:11:26;;;;;;;4.1;2.8;;;;;;;28.17;48.17383;939.3929;;;;
2021/08/21 15:13:52;;;;;;;4.4;3.2;;;;;;;28.14;47.55371;939.4307;;;;
2021/08/21 15:16:17;;;;;;;3.8;3.1;;;;;;;28.27;47.72266;939.4597;;;;
2021/08/21 15:18:42;;;;;;;5.5;3.5;;;;;;;28.28;47.71094;939.4673;;;;
2021/08/21 15:21:10;;;;;;;3.6;3;;;;;;;28.21;47.57324;939.4708;;;;
2021/08/21 15:23:32;;;;;;;3.6;3;;;;;;;28.19;46.9043;939.4861;;;;
2021/08/21 15:25:57;;;;;;;4.8;3.3;;;;;;;28.24;46.46973;939.4478;;;;
2021/08/21 15:28:22;;;;;;;3.9;3.4;;;;;;;28.12;47.18359;939.4155;;;;
2021/08/21 15:30:47;;;;;;;4;2.7;;;;;;;28.21;47.37109;939.4102;;;;
2021/08/21 15:33:13;;;;;;;4.7;3.1;;;;;;;28.21;47.60742;939.4475;;;;